Aeroporto :
LOGIN :

Iscrizione | Disclaimer

   EN    FR    IT 

 










Sommario :    VFR   VFR Marginale   IFR   IFR Intensivo   IFR Molto Intensivo
Visibilità : 
Base nubi : 
>= 8 km
>= 3000ft
5 / 8 km
1000 / 3000 ft
1500m / 5 km
500 / 1000 ft
800 / 1500m
200 / 500 ft
< 800m
< 200 ft
Simboli :   Temporali  Nebbia  Neve Forte  Precipitazioni Forti  Vento > 20 kt
SIGMETs :   Varie  Temporali  Ghiacco  Turbolenza  Onda orograficha  Ceneri Vulcaniche







- Altitudine del aeroporto : 250 ft


LERI - Alcantarilla

ULTIMO METAR :
  • 201500Z 07014KT 030V100 9999 FEW050 32/20 Q1014 NOSIG

METARs OBSOLETI :
  • 201400Z 10008KT 040V150 9999 FEW050 32/20 Q1015 NOSIG
  • 201300Z 06005KT 340V150 9999 SCT045 32/19 Q1015 NOSIG

TAF TAF LERI
Valido dal 20 a 15 ore il 21 a 00 ore UTC


201400Z 2015/2024 09012KT 9999 FEW035
PROB40
TEMPO 2015/2019 10014G24KT FEW035CB SCT040
PROB30
TEMPO 2021/2024 BKN014
Nessun NOTAM noto per questo aeroporto.



MetMap, La meteo Aeronautica in un colpo d'occhio ! - Copyright ORBIFLY Dicembre 2007 - Disclaimer

ORBIFLY MET'MAP TEAM :

Programmazione e sviluppo : Alexandra Zaïnal
Concezione e sviluppo : Baudouin d'Aumeries
Co-Programmazione e sviluppo : Marc-Olivier Méhu
Supporto tecnico e logistico : Manuel Goepfert
Aiuto per la traduzione : Arnaldo La Scala

Contatto : metmap@orbifly.com




FONTI E CREDITI :

   NOAA